sensor_id;sensor_type;location;lat;lon;timestamp;P1;durP1;ratioP1;P2;durP2;ratioP2
5363;SDS011;2705;41.410;2.160;2024-02-21T00:00:11;16.87;;;8.70;;
5363;SDS011;2705;41.410;2.160;2024-02-21T00:02:40;21.27;;;9.47;;
5363;SDS011;2705;41.410;2.160;2024-02-21T00:05:09;22.77;;;8.63;;
5363;SDS011;2705;41.410;2.160;2024-02-21T00:07:38;24.80;;;8.43;;
5363;SDS011;2705;41.410;2.160;2024-02-21T00:10:08;21.80;;;10.10;;
5363;SDS011;2705;41.410;2.160;2024-02-21T00:12:38;26.33;;;9.33;;
5363;SDS011;2705;41.410;2.160;2024-02-21T00:15:08;25.23;;;10.20;;
5363;SDS011;2705;41.410;2.160;2024-02-21T00:17:37;21.70;;;8.40;;
5363;SDS011;2705;41.410;2.160;2024-02-21T00:20:07;23.43;;;9.40;;
5363;SDS011;2705;41.410;2.160;2024-02-21T00:22:36;23.57;;;8.83;;
5363;SDS011;2705;41.410;2.160;2024-02-21T00:25:06;22.90;;;9.17;;
5363;SDS011;2705;41.410;2.160;2024-02-21T00:27:35;22.53;;;9.80;;
5363;SDS011;2705;41.410;2.160;2024-02-21T00:30:06;21.80;;;9.23;;
5363;SDS011;2705;41.410;2.160;2024-02-21T00:32:36;17.87;;;9.20;;
5363;SDS011;2705;41.410;2.160;2024-02-21T00:35:05;21.77;;;8.60;;
5363;SDS011;2705;41.410;2.160;2024-02-21T00:37:35;18.13;;;9.73;;
5363;SDS011;2705;41.410;2.160;2024-02-21T00:40:04;29.37;;;9.50;;
5363;SDS011;2705;41.410;2.160;2024-02-21T00:42:34;20.40;;;9.57;;
5363;SDS011;2705;41.410;2.160;2024-02-21T00:45:06;22.03;;;8.90;;
5363;SDS011;2705;41.410;2.160;2024-02-21T00:47:36;22.40;;;9.33;;
5363;SDS011;2705;41.410;2.160;2024-02-21T00:50:06;22.23;;;9.47;;
5363;SDS011;2705;41.410;2.160;2024-02-21T00:52:36;17.43;;;8.83;;
5363;SDS011;2705;41.410;2.160;2024-02-21T00:55:06;17.70;;;9.27;;
5363;SDS011;2705;41.410;2.160;2024-02-21T00:57:36;23.93;;;9.33;;
5363;SDS011;2705;41.410;2.160;2024-02-21T01:00:07;23.80;;;9.37;;
5363;SDS011;2705;41.410;2.160;2024-02-21T01:02:38;23.63;;;9.97;;
5363;SDS011;2705;41.410;2.160;2024-02-21T01:05:07;25.07;;;9.43;;
5363;SDS011;2705;41.410;2.160;2024-02-21T01:07:37;21.90;;;8.93;;
5363;SDS011;2705;41.410;2.160;2024-02-21T01:10:06;21.93;;;9.77;;
5363;SDS011;2705;41.410;2.160;2024-02-21T01:12:35;17.13;;;9.13;;
5363;SDS011;2705;41.410;2.160;2024-02-21T01:15:06;27.30;;;9.90;;
5363;SDS011;2705;41.410;2.160;2024-02-21T01:17:36;20.53;;;8.30;;
5363;SDS011;2705;41.410;2.160;2024-02-21T01:20:05;20.50;;;8.53;;
5363;SDS011;2705;41.410;2.160;2024-02-21T01:22:35;20.43;;;7.53;;
5363;SDS011;2705;41.410;2.160;2024-02-21T01:25:04;19.30;;;8.00;;
5363;SDS011;2705;41.410;2.160;2024-02-21T01:27:34;24.53;;;8.43;;
5363;SDS011;2705;41.410;2.160;2024-02-21T01:30:03;21.07;;;8.93;;
5363;SDS011;2705;41.410;2.160;2024-02-21T01:32:35;24.10;;;8.70;;
5363;SDS011;2705;41.410;2.160;2024-02-21T01:35:05;16.37;;;8.47;;
5363;SDS011;2705;41.410;2.160;2024-02-21T01:37:34;14.07;;;7.00;;
5363;SDS011;2705;41.410;2.160;2024-02-21T01:40:04;16.63;;;7.10;;
5363;SDS011;2705;41.410;2.160;2024-02-21T01:42:35;18.20;;;8.07;;
5363;SDS011;2705;41.410;2.160;2024-02-21T01:45:07;20.27;;;7.80;;
5363;SDS011;2705;41.410;2.160;2024-02-21T01:47:37;17.00;;;7.13;;
5363;SDS011;2705;41.410;2.160;2024-02-21T01:50:07;19.43;;;7.50;;
5363;SDS011;2705;41.410;2.160;2024-02-21T01:52:37;26.13;;;8.20;;
5363;SDS011;2705;41.410;2.160;2024-02-21T01:55:07;20.53;;;8.37;;
5363;SDS011;2705;41.410;2.160;2024-02-21T01:57:38;16.73;;;7.07;;
5363;SDS011;2705;41.410;2.160;2024-02-21T02:00:08;17.20;;;7.63;;
5363;SDS011;2705;41.410;2.160;2024-02-21T02:02:41;17.83;;;7.40;;
5363;SDS011;2705;41.410;2.160;2024-02-21T02:05:11;22.50;;;9.33;;
5363;SDS011;2705;41.410;2.160;2024-02-21T02:07:41;15.27;;;7.63;;
5363;SDS011;2705;41.410;2.160;2024-02-21T02:10:10;31.03;;;8.43;;
5363;SDS011;2705;41.410;2.160;2024-02-21T02:12:39;14.80;;;7.60;;
5363;SDS011;2705;41.410;2.160;2024-02-21T02:15:08;14.43;;;7.40;;
5363;SDS011;2705;41.410;2.160;2024-02-21T02:17:37;19.27;;;8.97;;
5363;SDS011;2705;41.410;2.160;2024-02-21T02:20:08;17.60;;;8.33;;
5363;SDS011;2705;41.410;2.160;2024-02-21T02:22:38;17.80;;;7.73;;
5363;SDS011;2705;41.410;2.160;2024-02-21T02:25:12;13.43;;;7.20;;
5363;SDS011;2705;41.410;2.160;2024-02-21T02:27:42;13.33;;;7.10;;
5363;SDS011;2705;41.410;2.160;2024-02-21T02:30:12;16.90;;;7.60;;
5363;SDS011;2705;41.410;2.160;2024-02-21T02:32:44;19.30;;;7.70;;
5363;SDS011;2705;41.410;2.160;2024-02-21T02:35:14;15.27;;;7.97;;
5363;SDS011;2705;41.410;2.160;2024-02-21T02:37:47;19.40;;;7.47;;
5363;SDS011;2705;41.410;2.160;2024-02-21T02:40:19;16.50;;;6.63;;
5363;SDS011;2705;41.410;2.160;2024-02-21T02:42:48;11.77;;;4.00;;
5363;SDS011;2705;41.410;2.160;2024-02-21T02:45:17;9.30;;;4.10;;
5363;SDS011;2705;41.410;2.160;2024-02-21T02:47:46;12.53;;;3.70;;
5363;SDS011;2705;41.410;2.160;2024-02-21T02:50:15;7.90;;;3.80;;
5363;SDS011;2705;41.410;2.160;2024-02-21T02:52:44;17.40;;;3.80;;
5363;SDS011;2705;41.410;2.160;2024-02-21T02:55:13;11.83;;;4.77;;
5363;SDS011;2705;41.410;2.160;2024-02-21T02:57:44;10.60;;;3.97;;
5363;SDS011;2705;41.410;2.160;2024-02-21T03:00:14;10.93;;;3.50;;
5363;SDS011;2705;41.410;2.160;2024-02-21T03:02:44;11.83;;;3.70;;
5363;SDS011;2705;41.410;2.160;2024-02-21T03:05:15;18.60;;;5.03;;
5363;SDS011;2705;41.410;2.160;2024-02-21T03:07:45;8.90;;;3.50;;
5363;SDS011;2705;41.410;2.160;2024-02-21T03:10:15;12.33;;;3.47;;
5363;SDS011;2705;41.410;2.160;2024-02-21T03:12:46;8.43;;;3.80;;
5363;SDS011;2705;41.410;2.160;2024-02-21T03:15:15;9.60;;;4.00;;
5363;SDS011;2705;41.410;2.160;2024-02-21T03:17:44;13.43;;;3.63;;
5363;SDS011;2705;41.410;2.160;2024-02-21T03:20:13;9.87;;;4.13;;
5363;SDS011;2705;41.410;2.160;2024-02-21T03:22:42;14.00;;;4.67;;
5363;SDS011;2705;41.410;2.160;2024-02-21T03:25:11;9.43;;;3.90;;
5363;SDS011;2705;41.410;2.160;2024-02-21T03:27:42;9.80;;;4.30;;
5363;SDS011;2705;41.410;2.160;2024-02-21T03:30:12;10.77;;;3.83;;
5363;SDS011;2705;41.410;2.160;2024-02-21T03:32:41;12.70;;;4.33;;
5363;SDS011;2705;41.410;2.160;2024-02-21T03:35:11;9.00;;;4.07;;
5363;SDS011;2705;41.410;2.160;2024-02-21T03:37:40;17.50;;;4.17;;
5363;SDS011;2705;41.410;2.160;2024-02-21T03:40:09;11.90;;;4.33;;
5363;SDS011;2705;41.410;2.160;2024-02-21T03:42:38;11.80;;;4.23;;
5363;SDS011;2705;41.410;2.160;2024-02-21T03:45:08;14.03;;;3.93;;
5363;SDS011;2705;41.410;2.160;2024-02-21T03:47:39;10.63;;;3.80;;
5363;SDS011;2705;41.410;2.160;2024-02-21T03:50:08;15.03;;;4.50;;
5363;SDS011;2705;41.410;2.160;2024-02-21T03:52:37;8.03;;;3.33;;
5363;SDS011;2705;41.410;2.160;2024-02-21T03:55:07;9.37;;;3.83;;
5363;SDS011;2705;41.410;2.160;2024-02-21T03:57:36;18.43;;;4.40;;
5363;SDS011;2705;41.410;2.160;2024-02-21T04:00:05;9.37;;;3.50;;
5363;SDS011;2705;41.410;2.160;2024-02-21T04:02:40;15.63;;;4.13;;
5363;SDS011;2705;41.410;2.160;2024-02-21T04:05:08;9.00;;;3.40;;
5363;SDS011;2705;41.410;2.160;2024-02-21T04:07:39;10.40;;;3.37;;
5363;SDS011;2705;41.410;2.160;2024-02-21T04:10:08;8.43;;;3.53;;
5363;SDS011;2705;41.410;2.160;2024-02-21T04:12:37;18.33;;;4.03;;
5363;SDS011;2705;41.410;2.160;2024-02-21T04:15:06;14.87;;;3.80;;
5363;SDS011;2705;41.410;2.160;2024-02-21T04:17:36;10.13;;;3.90;;
5363;SDS011;2705;41.410;2.160;2024-02-21T04:20:13;12.67;;;4.13;;
5363;SDS011;2705;41.410;2.160;2024-02-21T04:22:43;15.33;;;4.47;;
5363;SDS011;2705;41.410;2.160;2024-02-21T04:25:13;7.13;;;3.90;;
5363;SDS011;2705;41.410;2.160;2024-02-21T04:27:42;8.63;;;4.10;;
5363;SDS011;2705;41.410;2.160;2024-02-21T04:30:11;16.87;;;4.50;;
5363;SDS011;2705;41.410;2.160;2024-02-21T04:32:40;11.43;;;4.00;;
5363;SDS011;2705;41.410;2.160;2024-02-21T04:35:11;9.60;;;3.40;;
5363;SDS011;2705;41.410;2.160;2024-02-21T04:37:40;15.53;;;3.80;;
5363;SDS011;2705;41.410;2.160;2024-02-21T04:40:09;14.90;;;4.93;;
5363;SDS011;2705;41.410;2.160;2024-02-21T04:42:39;7.70;;;4.30;;
5363;SDS011;2705;41.410;2.160;2024-02-21T04:45:09;14.80;;;4.67;;
5363;SDS011;2705;41.410;2.160;2024-02-21T04:47:38;19.50;;;5.73;;
5363;SDS011;2705;41.410;2.160;2024-02-21T04:50:07;11.77;;;4.37;;
5363;SDS011;2705;41.410;2.160;2024-02-21T04:52:38;9.50;;;4.93;;
5363;SDS011;2705;41.410;2.160;2024-02-21T04:55:08;13.13;;;5.47;;
5363;SDS011;2705;41.410;2.160;2024-02-21T04:57:37;12.30;;;4.83;;
5363;SDS011;2705;41.410;2.160;2024-02-21T05:00:06;19.43;;;5.67;;
5363;SDS011;2705;41.410;2.160;2024-02-21T05:02:36;10.97;;;5.50;;
5363;SDS011;2705;41.410;2.160;2024-02-21T05:05:05;12.30;;;5.13;;
5363;SDS011;2705;41.410;2.160;2024-02-21T05:07:34;12.30;;;6.03;;
5363;SDS011;2705;41.410;2.160;2024-02-21T05:10:06;19.67;;;6.00;;
5363;SDS011;2705;41.410;2.160;2024-02-21T05:12:36;18.37;;;6.03;;
5363;SDS011;2705;41.410;2.160;2024-02-21T05:15:06;15.77;;;6.17;;
5363;SDS011;2705;41.410;2.160;2024-02-21T05:17:35;16.13;;;6.77;;
5363;SDS011;2705;41.410;2.160;2024-02-21T05:20:05;15.90;;;6.10;;
5363;SDS011;2705;41.410;2.160;2024-02-21T05:22:35;16.67;;;6.80;;
5363;SDS011;2705;41.410;2.160;2024-02-21T05:25:06;13.20;;;5.70;;
5363;SDS011;2705;41.410;2.160;2024-02-21T05:27:36;17.70;;;6.70;;
5363;SDS011;2705;41.410;2.160;2024-02-21T05:30:06;14.10;;;6.03;;
5363;SDS011;2705;41.410;2.160;2024-02-21T05:32:35;19.70;;;8.20;;
5363;SDS011;2705;41.410;2.160;2024-02-21T05:35:04;17.73;;;7.60;;
5363;SDS011;2705;41.410;2.160;2024-02-21T05:37:33;12.70;;;6.30;;
5363;SDS011;2705;41.410;2.160;2024-02-21T05:40:03;11.53;;;5.80;;
5363;SDS011;2705;41.410;2.160;2024-02-21T05:42:33;14.40;;;6.20;;
5363;SDS011;2705;41.410;2.160;2024-02-21T05:45:03;9.10;;;5.43;;
5363;SDS011;2705;41.410;2.160;2024-02-21T05:47:32;11.70;;;6.03;;
5363;SDS011;2705;41.410;2.160;2024-02-21T05:50:01;11.20;;;6.50;;
5363;SDS011;2705;41.410;2.160;2024-02-21T05:52:30;11.67;;;5.50;;
5363;SDS011;2705;41.410;2.160;2024-02-21T05:54:59;19.00;;;7.67;;
5363;SDS011;2705;41.410;2.160;2024-02-21T05:57:29;10.87;;;6.43;;
5363;SDS011;2705;41.410;2.160;2024-02-21T05:59:59;14.97;;;6.60;;
5363;SDS011;2705;41.410;2.160;2024-02-21T06:02:38;15.93;;;8.10;;
5363;SDS011;2705;41.410;2.160;2024-02-21T06:05:07;15.37;;;6.50;;
5363;SDS011;2705;41.410;2.160;2024-02-21T06:07:36;16.93;;;7.00;;
5363;SDS011;2705;41.410;2.160;2024-02-21T06:10:07;16.70;;;7.57;;
5363;SDS011;2705;41.410;2.160;2024-02-21T06:12:36;18.90;;;7.77;;
5363;SDS011;2705;41.410;2.160;2024-02-21T06:15:07;16.70;;;7.90;;
5363;SDS011;2705;41.410;2.160;2024-02-21T06:17:36;18.37;;;7.23;;
5363;SDS011;2705;41.410;2.160;2024-02-21T06:20:06;12.20;;;7.40;;
5363;SDS011;2705;41.410;2.160;2024-02-21T06:22:36;12.20;;;6.83;;
5363;SDS011;2705;41.410;2.160;2024-02-21T06:25:05;16.00;;;7.90;;
5363;SDS011;2705;41.410;2.160;2024-02-21T06:27:35;18.53;;;7.33;;
5363;SDS011;2705;41.410;2.160;2024-02-21T06:30:04;12.30;;;7.40;;
5363;SDS011;2705;41.410;2.160;2024-02-21T06:32:36;13.20;;;6.93;;
5363;SDS011;2705;41.410;2.160;2024-02-21T06:35:05;19.93;;;8.00;;
5363;SDS011;2705;41.410;2.160;2024-02-21T06:37:35;15.00;;;7.87;;
5363;SDS011;2705;41.410;2.160;2024-02-21T06:40:06;13.20;;;7.90;;
5363;SDS011;2705;41.410;2.160;2024-02-21T06:42:35;20.03;;;7.90;;
5363;SDS011;2705;41.410;2.160;2024-02-21T06:45:05;26.83;;;8.60;;
5363;SDS011;2705;41.410;2.160;2024-02-21T06:47:36;17.00;;;6.80;;
5363;SDS011;2705;41.410;2.160;2024-02-21T06:50:06;19.10;;;7.80;;
5363;SDS011;2705;41.410;2.160;2024-02-21T06:52:36;15.17;;;6.67;;
5363;SDS011;2705;41.410;2.160;2024-02-21T06:55:05;16.53;;;7.73;;
5363;SDS011;2705;41.410;2.160;2024-02-21T06:57:35;16.80;;;6.23;;
5363;SDS011;2705;41.410;2.160;2024-02-21T07:00:04;11.90;;;6.67;;
5363;SDS011;2705;41.410;2.160;2024-02-21T07:02:36;14.83;;;6.20;;
5363;SDS011;2705;41.410;2.160;2024-02-21T07:05:05;13.77;;;5.60;;
5363;SDS011;2705;41.410;2.160;2024-02-21T07:07:35;11.60;;;5.53;;
5363;SDS011;2705;41.410;2.160;2024-02-21T07:10:05;15.13;;;5.90;;
5363;SDS011;2705;41.410;2.160;2024-02-21T07:12:34;14.03;;;6.30;;
5363;SDS011;2705;41.410;2.160;2024-02-21T07:15:06;17.80;;;7.00;;
5363;SDS011;2705;41.410;2.160;2024-02-21T07:17:36;17.43;;;5.70;;
5363;SDS011;2705;41.410;2.160;2024-02-21T07:20:05;17.93;;;6.63;;
5363;SDS011;2705;41.410;2.160;2024-02-21T07:22:35;11.17;;;5.80;;
5363;SDS011;2705;41.410;2.160;2024-02-21T07:25:05;10.47;;;5.97;;
5363;SDS011;2705;41.410;2.160;2024-02-21T07:27:34;15.93;;;6.03;;
5363;SDS011;2705;41.410;2.160;2024-02-21T07:30:04;9.97;;;6.27;;
5363;SDS011;2705;41.410;2.160;2024-02-21T07:32:39;14.43;;;6.20;;
5363;SDS011;2705;41.410;2.160;2024-02-21T07:35:08;11.40;;;6.33;;
5363;SDS011;2705;41.410;2.160;2024-02-21T07:37:40;36.43;;;17.13;;
5363;SDS011;2705;41.410;2.160;2024-02-21T07:40:12;13.90;;;5.13;;
5363;SDS011;2705;41.410;2.160;2024-02-21T07:42:42;19.00;;;7.20;;
5363;SDS011;2705;41.410;2.160;2024-02-21T07:45:18;12.23;;;4.77;;
5363;SDS011;2705;41.410;2.160;2024-02-21T07:47:51;11.73;;;5.43;;
5363;SDS011;2705;41.410;2.160;2024-02-21T07:50:20;11.07;;;5.60;;
5363;SDS011;2705;41.410;2.160;2024-02-21T07:52:50;9.73;;;5.37;;
5363;SDS011;2705;41.410;2.160;2024-02-21T07:55:19;14.30;;;4.77;;
5363;SDS011;2705;41.410;2.160;2024-02-21T07:57:48;8.80;;;3.90;;
5363;SDS011;2705;41.410;2.160;2024-02-21T08:00:19;13.23;;;4.57;;
5363;SDS011;2705;41.410;2.160;2024-02-21T08:02:48;21.73;;;12.17;;
5363;SDS011;2705;41.410;2.160;2024-02-21T08:05:18;14.60;;;4.60;;
5363;SDS011;2705;41.410;2.160;2024-02-21T08:07:48;35.33;;;8.03;;
5363;SDS011;2705;41.410;2.160;2024-02-21T08:10:17;9.53;;;3.47;;
5363;SDS011;2705;41.410;2.160;2024-02-21T08:12:46;11.10;;;3.63;;
5363;SDS011;2705;41.410;2.160;2024-02-21T08:15:15;9.57;;;3.67;;
5363;SDS011;2705;41.410;2.160;2024-02-21T08:17:45;8.60;;;3.73;;
5363;SDS011;2705;41.410;2.160;2024-02-21T08:20:15;9.50;;;3.40;;
5363;SDS011;2705;41.410;2.160;2024-02-21T08:22:43;9.30;;;3.97;;
5363;SDS011;2705;41.410;2.160;2024-02-21T08:25:13;10.03;;;4.00;;
5363;SDS011;2705;41.410;2.160;2024-02-21T08:27:42;8.53;;;4.57;;
5363;SDS011;2705;41.410;2.160;2024-02-21T08:30:12;8.87;;;3.10;;
5363;SDS011;2705;41.410;2.160;2024-02-21T08:32:41;15.10;;;3.40;;
5363;SDS011;2705;41.410;2.160;2024-02-21T08:35:12;13.77;;;3.17;;
5363;SDS011;2705;41.410;2.160;2024-02-21T08:37:41;16.43;;;3.60;;
5363;SDS011;2705;41.410;2.160;2024-02-21T08:40:10;4.73;;;3.00;;
5363;SDS011;2705;41.410;2.160;2024-02-21T08:42:39;8.07;;;2.90;;
5363;SDS011;2705;41.410;2.160;2024-02-21T08:45:09;10.03;;;3.63;;
5363;SDS011;2705;41.410;2.160;2024-02-21T08:47:39;6.30;;;3.50;;
5363;SDS011;2705;41.410;2.160;2024-02-21T08:50:08;17.30;;;4.23;;
5363;SDS011;2705;41.410;2.160;2024-02-21T08:52:54;7.43;;;3.33;;
5363;SDS011;2705;41.410;2.160;2024-02-21T08:55:24;11.77;;;3.60;;
5363;SDS011;2705;41.410;2.160;2024-02-21T08:57:53;10.30;;;3.50;;
5363;SDS011;2705;41.410;2.160;2024-02-21T09:00:22;13.23;;;3.50;;
5363;SDS011;2705;41.410;2.160;2024-02-21T09:02:55;6.40;;;3.30;;
5363;SDS011;2705;41.410;2.160;2024-02-21T09:05:24;10.57;;;4.93;;
5363;SDS011;2705;41.410;2.160;2024-02-21T09:07:55;14.83;;;5.80;;
5363;SDS011;2705;41.410;2.160;2024-02-21T09:10:24;21.77;;;6.03;;
5363;SDS011;2705;41.410;2.160;2024-02-21T09:12:53;13.87;;;7.30;;
5363;SDS011;2705;41.410;2.160;2024-02-21T09:15:22;22.27;;;7.20;;
5363;SDS011;2705;41.410;2.160;2024-02-21T09:17:51;14.43;;;4.47;;
5363;SDS011;2705;41.410;2.160;2024-02-21T09:20:21;13.20;;;5.73;;
5363;SDS011;2705;41.410;2.160;2024-02-21T09:22:50;12.40;;;5.70;;
5363;SDS011;2705;41.410;2.160;2024-02-21T09:25:21;15.30;;;7.70;;
5363;SDS011;2705;41.410;2.160;2024-02-21T09:27:53;15.33;;;4.60;;
5363;SDS011;2705;41.410;2.160;2024-02-21T09:30:23;10.87;;;4.77;;
5363;SDS011;2705;41.410;2.160;2024-02-21T09:32:52;12.50;;;5.80;;
5363;SDS011;2705;41.410;2.160;2024-02-21T09:35:21;17.13;;;5.87;;
5363;SDS011;2705;41.410;2.160;2024-02-21T09:37:52;13.57;;;5.40;;
5363;SDS011;2705;41.410;2.160;2024-02-21T09:40:23;12.30;;;4.83;;
5363;SDS011;2705;41.410;2.160;2024-02-21T09:42:55;18.00;;;5.20;;
5363;SDS011;2705;41.410;2.160;2024-02-21T09:45:31;9.30;;;3.93;;
5363;SDS011;2705;41.410;2.160;2024-02-21T09:48:06;10.97;;;5.13;;
5363;SDS011;2705;41.410;2.160;2024-02-21T09:50:48;14.00;;;5.83;;
5363;SDS011;2705;41.410;2.160;2024-02-21T09:53:18;19.20;;;7.40;;
5363;SDS011;2705;41.410;2.160;2024-02-21T09:55:49;14.23;;;5.70;;
5363;SDS011;2705;41.410;2.160;2024-02-21T09:58:18;14.87;;;6.40;;
5363;SDS011;2705;41.410;2.160;2024-02-21T10:00:47;17.93;;;7.63;;
5363;SDS011;2705;41.410;2.160;2024-02-21T10:03:17;17.13;;;7.17;;
5363;SDS011;2705;41.410;2.160;2024-02-21T10:05:47;13.33;;;5.90;;
5363;SDS011;2705;41.410;2.160;2024-02-21T10:08:18;19.53;;;6.67;;
5363;SDS011;2705;41.410;2.160;2024-02-21T10:10:49;12.57;;;5.90;;
5363;SDS011;2705;41.410;2.160;2024-02-21T10:13:26;12.10;;;5.80;;
5363;SDS011;2705;41.410;2.160;2024-02-21T10:16:00;20.10;;;6.70;;
5363;SDS011;2705;41.410;2.160;2024-02-21T10:18:30;14.63;;;5.57;;
5363;SDS011;2705;41.410;2.160;2024-02-21T10:21:01;16.20;;;7.57;;
5363;SDS011;2705;41.410;2.160;2024-02-21T10:23:42;22.00;;;7.33;;
5363;SDS011;2705;41.410;2.160;2024-02-21T10:26:13;21.07;;;6.97;;
5363;SDS011;2705;41.410;2.160;2024-02-21T10:28:42;20.97;;;6.80;;
5363;SDS011;2705;41.410;2.160;2024-02-21T10:31:20;23.90;;;8.30;;
5363;SDS011;2705;41.410;2.160;2024-02-21T10:33:57;28.77;;;6.13;;
5363;SDS011;2705;41.410;2.160;2024-02-21T10:36:30;14.33;;;5.20;;
5363;SDS011;2705;41.410;2.160;2024-02-21T10:38:59;10.87;;;5.30;;
5363;SDS011;2705;41.410;2.160;2024-02-21T10:41:30;12.40;;;5.77;;
5363;SDS011;2705;41.410;2.160;2024-02-21T10:44:00;10.07;;;5.17;;
5363;SDS011;2705;41.410;2.160;2024-02-21T10:46:34;13.87;;;5.50;;
5363;SDS011;2705;41.410;2.160;2024-02-21T10:49:07;19.13;;;5.60;;
5363;SDS011;2705;41.410;2.160;2024-02-21T10:51:42;18.57;;;4.97;;
5363;SDS011;2705;41.410;2.160;2024-02-21T10:54:26;14.80;;;4.80;;
5363;SDS011;2705;41.410;2.160;2024-02-21T10:57:09;11.10;;;5.10;;
5363;SDS011;2705;41.410;2.160;2024-02-21T10:59:41;12.13;;;5.50;;
5363;SDS011;2705;41.410;2.160;2024-02-21T11:02:12;7.30;;;4.77;;
5363;SDS011;2705;41.410;2.160;2024-02-21T11:04:42;15.63;;;4.90;;
5363;SDS011;2705;41.410;2.160;2024-02-21T11:07:13;10.10;;;4.17;;
5363;SDS011;2705;41.410;2.160;2024-02-21T11:09:50;12.43;;;4.47;;
5363;SDS011;2705;41.410;2.160;2024-02-21T11:12:23;9.40;;;4.17;;
5363;SDS011;2705;41.410;2.160;2024-02-21T11:15:03;15.60;;;3.90;;
5363;SDS011;2705;41.410;2.160;2024-02-21T11:17:33;5.73;;;2.73;;
5363;SDS011;2705;41.410;2.160;2024-02-21T11:20:16;9.43;;;3.03;;
5363;SDS011;2705;41.410;2.160;2024-02-21T19:30:09;25.85;;;11.65;;
5363;SDS011;2705;41.410;2.160;2024-02-21T19:32:38;20.73;;;11.37;;
5363;SDS011;2705;41.410;2.160;2024-02-21T19:35:08;20.83;;;11.40;;
5363;SDS011;2705;41.410;2.160;2024-02-21T19:37:38;16.13;;;10.00;;
5363;SDS011;2705;41.410;2.160;2024-02-21T19:40:09;20.30;;;9.80;;
5363;SDS011;2705;41.410;2.160;2024-02-21T19:42:39;19.77;;;10.63;;
5363;SDS011;2705;41.410;2.160;2024-02-21T19:45:09;27.67;;;14.57;;
5363;SDS011;2705;41.410;2.160;2024-02-21T19:47:39;21.60;;;10.50;;
5363;SDS011;2705;41.410;2.160;2024-02-21T19:50:11;22.47;;;11.30;;
5363;SDS011;2705;41.410;2.160;2024-02-21T19:52:45;17.77;;;10.77;;
5363;SDS011;2705;41.410;2.160;2024-02-21T19:55:17;19.77;;;10.40;;
5363;SDS011;2705;41.410;2.160;2024-02-21T19:57:46;17.53;;;8.63;;
5363;SDS011;2705;41.410;2.160;2024-02-21T20:00:16;21.70;;;9.27;;
5363;SDS011;2705;41.410;2.160;2024-02-21T20:02:46;21.77;;;8.50;;
5363;SDS011;2705;41.410;2.160;2024-02-21T20:05:18;18.30;;;9.93;;
5363;SDS011;2705;41.410;2.160;2024-02-21T20:07:49;15.13;;;10.13;;
5363;SDS011;2705;41.410;2.160;2024-02-21T20:10:20;14.13;;;8.80;;
5363;SDS011;2705;41.410;2.160;2024-02-21T20:12:53;17.63;;;9.00;;
5363;SDS011;2705;41.410;2.160;2024-02-21T20:15:27;16.90;;;10.40;;
5363;SDS011;2705;41.410;2.160;2024-02-21T20:17:59;17.30;;;10.60;;
5363;SDS011;2705;41.410;2.160;2024-02-21T20:20:30;20.50;;;9.87;;
5363;SDS011;2705;41.410;2.160;2024-02-21T20:23:02;19.40;;;9.43;;
5363;SDS011;2705;41.410;2.160;2024-02-21T20:25:36;18.10;;;9.03;;
5363;SDS011;2705;41.410;2.160;2024-02-21T20:28:07;15.93;;;10.63;;
5363;SDS011;2705;41.410;2.160;2024-02-21T20:30:39;20.60;;;10.80;;
5363;SDS011;2705;41.410;2.160;2024-02-21T20:33:12;21.00;;;10.20;;
5363;SDS011;2705;41.410;2.160;2024-02-21T20:35:42;14.60;;;9.70;;
5363;SDS011;2705;41.410;2.160;2024-02-21T20:38:11;17.57;;;9.93;;
5363;SDS011;2705;41.410;2.160;2024-02-21T20:40:45;26.30;;;10.53;;
5363;SDS011;2705;41.410;2.160;2024-02-21T20:43:15;16.27;;;9.10;;
5363;SDS011;2705;41.410;2.160;2024-02-21T20:45:48;22.93;;;10.40;;
5363;SDS011;2705;41.410;2.160;2024-02-21T20:48:18;20.37;;;9.60;;
5363;SDS011;2705;41.410;2.160;2024-02-21T20:50:47;16.93;;;9.20;;
5363;SDS011;2705;41.410;2.160;2024-02-21T20:53:17;23.27;;;10.27;;
5363;SDS011;2705;41.410;2.160;2024-02-21T20:55:53;14.90;;;10.37;;
5363;SDS011;2705;41.410;2.160;2024-02-21T20:58:23;20.97;;;11.40;;
5363;SDS011;2705;41.410;2.160;2024-02-21T21:00:53;21.43;;;11.60;;
5363;SDS011;2705;41.410;2.160;2024-02-21T21:03:23;26.07;;;11.20;;
5363;SDS011;2705;41.410;2.160;2024-02-21T21:05:57;18.23;;;10.97;;
5363;SDS011;2705;41.410;2.160;2024-02-21T21:08:28;22.83;;;10.53;;
5363;SDS011;2705;41.410;2.160;2024-02-21T21:11:04;20.50;;;11.00;;
5363;SDS011;2705;41.410;2.160;2024-02-21T21:13:36;18.33;;;10.87;;
5363;SDS011;2705;41.410;2.160;2024-02-21T21:16:07;22.77;;;10.80;;
5363;SDS011;2705;41.410;2.160;2024-02-21T21:18:37;18.00;;;10.40;;
5363;SDS011;2705;41.410;2.160;2024-02-21T21:21:07;25.30;;;12.43;;
5363;SDS011;2705;41.410;2.160;2024-02-21T21:23:36;21.37;;;11.40;;
5363;SDS011;2705;41.410;2.160;2024-02-21T21:26:09;18.37;;;10.20;;
5363;SDS011;2705;41.410;2.160;2024-02-21T21:28:41;24.00;;;11.07;;
5363;SDS011;2705;41.410;2.160;2024-02-21T21:31:13;20.47;;;11.50;;
5363;SDS011;2705;41.410;2.160;2024-02-21T21:33:45;19.33;;;9.40;;
5363;SDS011;2705;41.410;2.160;2024-02-21T21:36:22;19.47;;;9.43;;
5363;SDS011;2705;41.410;2.160;2024-02-21T21:38:52;22.40;;;10.40;;
5363;SDS011;2705;41.410;2.160;2024-02-21T21:41:23;21.87;;;11.20;;
5363;SDS011;2705;41.410;2.160;2024-02-21T21:43:55;22.53;;;10.93;;
5363;SDS011;2705;41.410;2.160;2024-02-21T21:46:26;14.63;;;10.07;;
5363;SDS011;2705;41.410;2.160;2024-02-21T21:48:56;12.47;;;8.90;;
5363;SDS011;2705;41.410;2.160;2024-02-21T21:51:29;21.27;;;11.70;;
5363;SDS011;2705;41.410;2.160;2024-02-21T21:53:59;21.10;;;9.60;;
5363;SDS011;2705;41.410;2.160;2024-02-21T21:56:30;18.30;;;10.43;;
5363;SDS011;2705;41.410;2.160;2024-02-21T21:59:02;23.67;;;10.07;;
5363;SDS011;2705;41.410;2.160;2024-02-21T22:01:32;19.70;;;11.03;;
5363;SDS011;2705;41.410;2.160;2024-02-21T22:04:01;16.40;;;10.97;;
5363;SDS011;2705;41.410;2.160;2024-02-21T22:06:31;21.60;;;12.50;;
5363;SDS011;2705;41.410;2.160;2024-02-21T22:09:00;18.13;;;11.10;;
5363;SDS011;2705;41.410;2.160;2024-02-21T22:11:30;23.13;;;13.97;;
5363;SDS011;2705;41.410;2.160;2024-02-21T22:13:59;21.87;;;11.40;;
5363;SDS011;2705;41.410;2.160;2024-02-21T22:16:29;18.67;;;11.20;;
5363;SDS011;2705;41.410;2.160;2024-02-21T22:18:58;18.53;;;12.30;;
5363;SDS011;2705;41.410;2.160;2024-02-21T22:21:27;18.10;;;11.27;;
5363;SDS011;2705;41.410;2.160;2024-02-21T22:23:57;20.40;;;11.70;;
5363;SDS011;2705;41.410;2.160;2024-02-21T22:26:26;35.77;;;11.93;;
5363;SDS011;2705;41.410;2.160;2024-02-21T22:28:57;19.20;;;10.80;;
5363;SDS011;2705;41.410;2.160;2024-02-21T22:31:26;19.70;;;11.20;;
5363;SDS011;2705;41.410;2.160;2024-02-21T22:33:55;18.10;;;11.20;;
5363;SDS011;2705;41.410;2.160;2024-02-21T22:36:25;19.30;;;11.93;;
5363;SDS011;2705;41.410;2.160;2024-02-21T22:38:54;18.97;;;11.83;;
5363;SDS011;2705;41.410;2.160;2024-02-21T22:41:22;20.17;;;11.17;;
5363;SDS011;2705;41.410;2.160;2024-02-21T22:43:52;16.87;;;10.47;;
5363;SDS011;2705;41.410;2.160;2024-02-21T22:46:22;11.13;;;8.70;;
5363;SDS011;2705;41.410;2.160;2024-02-21T22:48:51;13.87;;;10.03;;
5363;SDS011;2705;41.410;2.160;2024-02-21T22:51:21;15.03;;;10.00;;
5363;SDS011;2705;41.410;2.160;2024-02-21T22:53:50;18.57;;;9.93;;
5363;SDS011;2705;41.410;2.160;2024-02-21T22:56:19;15.37;;;10.90;;
5363;SDS011;2705;41.410;2.160;2024-02-21T22:58:48;17.13;;;11.93;;
5363;SDS011;2705;41.410;2.160;2024-02-21T23:01:17;17.70;;;10.73;;
5363;SDS011;2705;41.410;2.160;2024-02-21T23:03:48;18.33;;;11.83;;
5363;SDS011;2705;41.410;2.160;2024-02-21T23:06:17;18.60;;;10.83;;
5363;SDS011;2705;41.410;2.160;2024-02-21T23:08:47;33.53;;;19.17;;
5363;SDS011;2705;41.410;2.160;2024-02-21T23:11:16;13.40;;;9.10;;
5363;SDS011;2705;41.410;2.160;2024-02-21T23:13:45;17.00;;;9.63;;
5363;SDS011;2705;41.410;2.160;2024-02-21T23:16:14;18.10;;;10.10;;
5363;SDS011;2705;41.410;2.160;2024-02-21T23:18:43;15.10;;;9.57;;
5363;SDS011;2705;41.410;2.160;2024-02-21T23:21:14;15.03;;;9.20;;
5363;SDS011;2705;41.410;2.160;2024-02-21T23:23:43;13.80;;;9.43;;
5363;SDS011;2705;41.410;2.160;2024-02-21T23:26:12;16.97;;;8.67;;